sensor_id;sensor_type;location;lat;lon;timestamp;temperature;humidity
25046;DHT22;13044;49.304;12.840;2022-08-07T00:00:28;16.00;99.90
25046;DHT22;13044;49.304;12.840;2022-08-07T00:02:55;15.90;99.90
25046;DHT22;13044;49.304;12.840;2022-08-07T00:05:23;15.80;99.90
25046;DHT22;13044;49.304;12.840;2022-08-07T00:07:53;15.70;99.90
25046;DHT22;13044;49.304;12.840;2022-08-07T00:10:27;15.70;99.90
25046;DHT22;13044;49.304;12.840;2022-08-07T00:12:57;15.60;99.90
25046;DHT22;13044;49.304;12.840;2022-08-07T00:15:29;15.50;99.90
25046;DHT22;13044;49.304;12.840;2022-08-07T00:18:21;15.50;99.90
25046;DHT22;13044;49.304;12.840;2022-08-07T00:21:01;15.60;99.90
25046;DHT22;13044;49.304;12.840;2022-08-07T00:23:49;15.70;99.90
25046;DHT22;13044;49.304;12.840;2022-08-07T00:26:16;15.60;99.90
25046;DHT22;13044;49.304;12.840;2022-08-07T00:29:03;15.60;99.90
25046;DHT22;13044;49.304;12.840;2022-08-07T00:31:31;15.60;99.90
25046;DHT22;13044;49.304;12.840;2022-08-07T00:34:06;15.60;99.90
25046;DHT22;13044;49.304;12.840;2022-08-07T00:36:35;15.60;99.90
25046;DHT22;13044;49.304;12.840;2022-08-07T00:39:09;15.60;99.90
25046;DHT22;13044;49.304;12.840;2022-08-07T00:41:56;15.60;99.90
25046;DHT22;13044;49.304;12.840;2022-08-07T00:44:33;15.50;99.90
25046;DHT22;13044;49.304;12.840;2022-08-07T00:47:07;15.40;99.90
25046;DHT22;13044;49.304;12.840;2022-08-07T00:49:54;15.30;99.90
25046;DHT22;13044;49.304;12.840;2022-08-07T00:52:42;15.20;99.90
25046;DHT22;13044;49.304;12.840;2022-08-07T00:55:13;15.20;99.90
25046;DHT22;13044;49.304;12.840;2022-08-07T00:57:51;15.00;99.90
25046;DHT22;13044;49.304;12.840;2022-08-07T01:00:22;15.10;99.90
25046;DHT22;13044;49.304;12.840;2022-08-07T01:02:50;15.10;99.90
25046;DHT22;13044;49.304;12.840;2022-08-07T01:05:19;15.10;99.90
25046;DHT22;13044;49.304;12.840;2022-08-07T01:07:50;15.00;99.90
25046;DHT22;13044;49.304;12.840;2022-08-07T01:10:18;14.90;99.90
25046;DHT22;13044;49.304;12.840;2022-08-07T01:12:46;14.90;99.90
25046;DHT22;13044;49.304;12.840;2022-08-07T01:15:22;14.90;99.90
25046;DHT22;13044;49.304;12.840;2022-08-07T01:18:09;14.90;99.90
25046;DHT22;13044;49.304;12.840;2022-08-07T01:20:47;15.00;99.90
25046;DHT22;13044;49.304;12.840;2022-08-07T01:23:26;15.00;99.90
25046;DHT22;13044;49.304;12.840;2022-08-07T01:26:04;15.00;99.90
25046;DHT22;13044;49.304;12.840;2022-08-07T01:28:31;15.10;99.90
25046;DHT22;13044;49.304;12.840;2022-08-07T01:31:00;15.10;99.90
25046;DHT22;13044;49.304;12.840;2022-08-07T01:33:29;15.10;99.90
25046;DHT22;13044;49.304;12.840;2022-08-07T01:36:16;15.00;99.90
25046;DHT22;13044;49.304;12.840;2022-08-07T01:38:43;15.00;99.90
25046;DHT22;13044;49.304;12.840;2022-08-07T01:41:12;14.90;99.90
25046;DHT22;13044;49.304;12.840;2022-08-07T01:43:51;14.80;99.90
25046;DHT22;13044;49.304;12.840;2022-08-07T01:50:25;14.70;99.90
25046;DHT22;13044;49.304;12.840;2022-08-07T01:52:56;14.80;99.90
25046;DHT22;13044;49.304;12.840;2022-08-07T01:55:36;14.80;99.90
25046;DHT22;13044;49.304;12.840;2022-08-07T01:58:07;14.80;99.90
25046;DHT22;13044;49.304;12.840;2022-08-07T02:00:59;14.70;99.90
25046;DHT22;13044;49.304;12.840;2022-08-07T02:03:52;14.70;99.90
25046;DHT22;13044;49.304;12.840;2022-08-07T02:06:24;14.60;99.90
25046;DHT22;13044;49.304;12.840;2022-08-07T02:13:04;14.60;99.90
25046;DHT22;13044;49.304;12.840;2022-08-07T02:15:35;14.60;99.90
25046;DHT22;13044;49.304;12.840;2022-08-07T02:18:04;14.60;99.90
25046;DHT22;13044;49.304;12.840;2022-08-07T02:20:34;14.50;99.90
25046;DHT22;13044;49.304;12.840;2022-08-07T02:23:04;14.40;99.90
25046;DHT22;13044;49.304;12.840;2022-08-07T02:25:34;14.40;99.90
25046;DHT22;13044;49.304;12.840;2022-08-07T02:28:26;14.30;99.90
25046;DHT22;13044;49.304;12.840;2022-08-07T02:30:55;14.20;99.90
25046;DHT22;13044;49.304;12.840;2022-08-07T02:33:27;14.20;99.90
25046;DHT22;13044;49.304;12.840;2022-08-07T02:36:08;14.20;99.90
25046;DHT22;13044;49.304;12.840;2022-08-07T02:38:56;14.20;99.90
25046;DHT22;13044;49.304;12.840;2022-08-07T02:41:24;14.20;99.90
25046;DHT22;13044;49.304;12.840;2022-08-07T02:44:03;14.10;99.90
25046;DHT22;13044;49.304;12.840;2022-08-07T02:46:32;14.10;99.90
25046;DHT22;13044;49.304;12.840;2022-08-07T02:49:03;14.00;99.90
25046;DHT22;13044;49.304;12.840;2022-08-07T02:51:32;14.00;99.90
25046;DHT22;13044;49.304;12.840;2022-08-07T02:54:19;14.00;99.90
25046;DHT22;13044;49.304;12.840;2022-08-07T02:56:52;13.90;99.90
25046;DHT22;13044;49.304;12.840;2022-08-07T02:59:23;13.90;99.90
25046;DHT22;13044;49.304;12.840;2022-08-07T03:01:54;13.90;99.90
25046;DHT22;13044;49.304;12.840;2022-08-07T03:04:28;13.90;99.90
25046;DHT22;13044;49.304;12.840;2022-08-07T03:06:55;14.00;99.90
25046;DHT22;13044;49.304;12.840;2022-08-07T03:09:29;14.00;99.90
25046;DHT22;13044;49.304;12.840;2022-08-07T03:12:12;14.00;99.90
25046;DHT22;13044;49.304;12.840;2022-08-07T03:14:49;14.00;99.90
25046;DHT22;13044;49.304;12.840;2022-08-07T03:17:18;13.90;99.90
25046;DHT22;13044;49.304;12.840;2022-08-07T03:19:49;14.00;99.90
25046;DHT22;13044;49.304;12.840;2022-08-07T03:22:21;13.90;99.90
25046;DHT22;13044;49.304;12.840;2022-08-07T03:24:55;13.80;99.90
25046;DHT22;13044;49.304;12.840;2022-08-07T03:27:23;13.70;99.90
25046;DHT22;13044;49.304;12.840;2022-08-07T03:29:57;13.70;99.90
25046;DHT22;13044;49.304;12.840;2022-08-07T03:32:26;13.60;99.90
25046;DHT22;13044;49.304;12.840;2022-08-07T03:35:01;13.70;99.90
25046;DHT22;13044;49.304;12.840;2022-08-07T03:37:47;13.70;99.90
25046;DHT22;13044;49.304;12.840;2022-08-07T03:40:20;13.60;99.90
25046;DHT22;13044;49.304;12.840;2022-08-07T03:42:49;13.50;99.90
25046;DHT22;13044;49.304;12.840;2022-08-07T03:45:18;13.50;99.90
25046;DHT22;13044;49.304;12.840;2022-08-07T03:47:57;13.50;99.90
25046;DHT22;13044;49.304;12.840;2022-08-07T03:50:25;13.40;99.90
25046;DHT22;13044;49.304;12.840;2022-08-07T03:52:57;13.50;99.90
25046;DHT22;13044;49.304;12.840;2022-08-07T03:55:26;13.40;99.90
25046;DHT22;13044;49.304;12.840;2022-08-07T03:58:16;13.40;99.90
25046;DHT22;13044;49.304;12.840;2022-08-07T04:01:04;13.50;99.90
25046;DHT22;13044;49.304;12.840;2022-08-07T04:03:37;13.40;99.90
25046;DHT22;13044;49.304;12.840;2022-08-07T04:06:19;13.40;99.90
25046;DHT22;13044;49.304;12.840;2022-08-07T04:09:04;13.50;99.90
25046;DHT22;13044;49.304;12.840;2022-08-07T04:11:43;13.50;99.90
25046;DHT22;13044;49.304;12.840;2022-08-07T04:14:32;13.40;99.90
25046;DHT22;13044;49.304;12.840;2022-08-07T04:17:10;13.40;99.90
25046;DHT22;13044;49.304;12.840;2022-08-07T04:19:57;13.40;99.90
25046;DHT22;13044;49.304;12.840;2022-08-07T04:22:25;13.40;99.90
25046;DHT22;13044;49.304;12.840;2022-08-07T04:24:58;13.40;99.90
25046;DHT22;13044;49.304;12.840;2022-08-07T04:27:27;13.30;99.90
25046;DHT22;13044;49.304;12.840;2022-08-07T04:30:02;13.30;99.90
25046;DHT22;13044;49.304;12.840;2022-08-07T04:32:32;13.30;99.90
25046;DHT22;13044;49.304;12.840;2022-08-07T04:35:05;13.30;99.90
25046;DHT22;13044;49.304;12.840;2022-08-07T04:37:37;13.30;99.90
25046;DHT22;13044;49.304;12.840;2022-08-07T04:40:24;13.30;99.90
25046;DHT22;13044;49.304;12.840;2022-08-07T04:42:57;13.30;99.90
25046;DHT22;13044;49.304;12.840;2022-08-07T04:45:35;13.40;99.90
25046;DHT22;13044;49.304;12.840;2022-08-07T04:51:18;13.50;99.90
25046;DHT22;13044;49.304;12.840;2022-08-07T04:54:01;13.60;99.90
25046;DHT22;13044;49.304;12.840;2022-08-07T04:56:37;13.70;99.90
25046;DHT22;13044;49.304;12.840;2022-08-07T05:03:10;13.80;99.90
25046;DHT22;13044;49.304;12.840;2022-08-07T05:06:23;14.00;99.90
25046;DHT22;13044;49.304;12.840;2022-08-07T05:11:39;14.20;99.90
25046;DHT22;13044;49.304;12.840;2022-08-07T05:14:42;14.30;99.90
25046;DHT22;13044;49.304;12.840;2022-08-07T05:17:30;14.30;99.90
25046;DHT22;13044;49.304;12.840;2022-08-07T05:20:23;14.20;99.90
25046;DHT22;13044;49.304;12.840;2022-08-07T05:22:57;14.30;99.90
25046;DHT22;13044;49.304;12.840;2022-08-07T05:25:28;14.30;99.90
25046;DHT22;13044;49.304;12.840;2022-08-07T05:28:16;14.50;99.90
25046;DHT22;13044;49.304;12.840;2022-08-07T05:30:50;15.10;99.90
25046;DHT22;13044;49.304;12.840;2022-08-07T05:33:18;15.50;99.90
25046;DHT22;13044;49.304;12.840;2022-08-07T05:35:48;15.90;99.90
25046;DHT22;13044;49.304;12.840;2022-08-07T05:38:19;15.90;99.90
25046;DHT22;13044;49.304;12.840;2022-08-07T05:41:10;16.00;99.90
25046;DHT22;13044;49.304;12.840;2022-08-07T05:43:54;15.90;99.90
25046;DHT22;13044;49.304;12.840;2022-08-07T05:46:38;15.80;99.90
25046;DHT22;13044;49.304;12.840;2022-08-07T05:49:09;15.70;99.90
25046;DHT22;13044;49.304;12.840;2022-08-07T05:51:44;15.50;99.90
25046;DHT22;13044;49.304;12.840;2022-08-07T05:54:13;15.50;99.90
25046;DHT22;13044;49.304;12.840;2022-08-07T05:57:02;15.50;99.90
25046;DHT22;13044;49.304;12.840;2022-08-07T05:59:31;15.50;99.90
25046;DHT22;13044;49.304;12.840;2022-08-07T06:02:21;15.60;99.90
25046;DHT22;13044;49.304;12.840;2022-08-07T06:04:58;15.60;99.90
25046;DHT22;13044;49.304;12.840;2022-08-07T06:07:30;15.70;99.90
25046;DHT22;13044;49.304;12.840;2022-08-07T06:10:19;15.80;99.90
25046;DHT22;13044;49.304;12.840;2022-08-07T06:12:48;15.90;99.90
25046;DHT22;13044;49.304;12.840;2022-08-07T06:15:16;15.90;99.90
25046;DHT22;13044;49.304;12.840;2022-08-07T06:17:46;15.90;99.90
25046;DHT22;13044;49.304;12.840;2022-08-07T06:20:23;16.00;99.90
25046;DHT22;13044;49.304;12.840;2022-08-07T06:23:11;16.10;99.90
25046;DHT22;13044;49.304;12.840;2022-08-07T06:25:59;16.10;99.90
25046;DHT22;13044;49.304;12.840;2022-08-07T06:28:27;16.20;99.90
25046;DHT22;13044;49.304;12.840;2022-08-07T06:30:55;16.30;99.90
25046;DHT22;13044;49.304;12.840;2022-08-07T06:33:24;16.40;99.90
25046;DHT22;13044;49.304;12.840;2022-08-07T06:35:52;16.60;99.90
25046;DHT22;13044;49.304;12.840;2022-08-07T06:38:41;16.70;99.90
25046;DHT22;13044;49.304;12.840;2022-08-07T06:41:29;16.80;99.90
25046;DHT22;13044;49.304;12.840;2022-08-07T06:44:19;16.90;99.90
25046;DHT22;13044;49.304;12.840;2022-08-07T06:46:49;16.90;99.90
25046;DHT22;13044;49.304;12.840;2022-08-07T06:49:25;17.00;99.90
25046;DHT22;13044;49.304;12.840;2022-08-07T06:51:54;17.00;99.90
25046;DHT22;13044;49.304;12.840;2022-08-07T06:54:33;17.00;99.90
25046;DHT22;13044;49.304;12.840;2022-08-07T06:57:21;17.00;99.90
25046;DHT22;13044;49.304;12.840;2022-08-07T07:00:09;17.10;99.90
25046;DHT22;13044;49.304;12.840;2022-08-07T07:02:44;17.30;99.90
25046;DHT22;13044;49.304;12.840;2022-08-07T07:05:20;17.50;99.90
25046;DHT22;13044;49.304;12.840;2022-08-07T07:08:07;17.60;99.90
25046;DHT22;13044;49.304;12.840;2022-08-07T07:10:45;17.70;99.90
25046;DHT22;13044;49.304;12.840;2022-08-07T07:13:43;17.70;99.90
25046;DHT22;13044;49.304;12.840;2022-08-07T07:16:29;17.80;99.90
25046;DHT22;13044;49.304;12.840;2022-08-07T07:19:11;17.90;99.90
25046;DHT22;13044;49.304;12.840;2022-08-07T07:22:00;17.90;99.90
25046;DHT22;13044;49.304;12.840;2022-08-07T07:24:48;18.00;99.90
25046;DHT22;13044;49.304;12.840;2022-08-07T07:27:34;18.10;99.90
25046;DHT22;13044;49.304;12.840;2022-08-07T07:30:26;18.20;99.90
25046;DHT22;13044;49.304;12.840;2022-08-07T07:33:05;18.30;99.90
25046;DHT22;13044;49.304;12.840;2022-08-07T07:35:40;18.40;99.90
25046;DHT22;13044;49.304;12.840;2022-08-07T07:38:29;18.50;99.90
25046;DHT22;13044;49.304;12.840;2022-08-07T07:41:04;18.50;99.90
25046;DHT22;13044;49.304;12.840;2022-08-07T07:43:38;18.60;99.90
25046;DHT22;13044;49.304;12.840;2022-08-07T07:46:29;18.70;99.90
25046;DHT22;13044;49.304;12.840;2022-08-07T07:49:19;18.80;99.90
25046;DHT22;13044;49.304;12.840;2022-08-07T07:52:07;18.80;99.90
25046;DHT22;13044;49.304;12.840;2022-08-07T07:54:35;18.90;99.90
25046;DHT22;13044;49.304;12.840;2022-08-07T07:57:06;19.00;99.90
25046;DHT22;13044;49.304;12.840;2022-08-07T07:59:38;19.20;99.90
25046;DHT22;13044;49.304;12.840;2022-08-07T08:02:20;19.20;99.30
25046;DHT22;13044;49.304;12.840;2022-08-07T08:05:05;19.30;99.20
25046;DHT22;13044;49.304;12.840;2022-08-07T08:07:41;19.40;99.30
25046;DHT22;13044;49.304;12.840;2022-08-07T08:10:27;19.40;98.50
25046;DHT22;13044;49.304;12.840;2022-08-07T08:13:06;19.50;98.60
25046;DHT22;13044;49.304;12.840;2022-08-07T08:15:41;19.60;97.60
25046;DHT22;13044;49.304;12.840;2022-08-07T08:18:30;19.80;96.00
25046;DHT22;13044;49.304;12.840;2022-08-07T08:21:00;19.80;95.60
25046;DHT22;13044;49.304;12.840;2022-08-07T08:23:30;19.80;95.80
25046;DHT22;13044;49.304;12.840;2022-08-07T08:26:17;19.90;95.30
25046;DHT22;13044;49.304;12.840;2022-08-07T08:29:04;20.00;94.60
25046;DHT22;13044;49.304;12.840;2022-08-07T08:31:35;20.10;94.30
25046;DHT22;13044;49.304;12.840;2022-08-07T08:34:24;20.20;94.20
25046;DHT22;13044;49.304;12.840;2022-08-07T08:36:56;20.20;94.10
25046;DHT22;13044;49.304;12.840;2022-08-07T08:39:26;20.10;93.50
25046;DHT22;13044;49.304;12.840;2022-08-07T08:42:38;20.10;94.70
25046;DHT22;13044;49.304;12.840;2022-08-07T08:45:25;20.20;94.50
25046;DHT22;13044;49.304;12.840;2022-08-07T08:48:31;20.30;93.60
25046;DHT22;13044;49.304;12.840;2022-08-07T08:51:17;20.30;93.00
25046;DHT22;13044;49.304;12.840;2022-08-07T08:56:52;20.40;91.80
25046;DHT22;13044;49.304;12.840;2022-08-07T09:00:00;20.60;90.40
25046;DHT22;13044;49.304;12.840;2022-08-07T09:02:51;20.60;90.40
25046;DHT22;13044;49.304;12.840;2022-08-07T09:08:57;20.60;90.50
25046;DHT22;13044;49.304;12.840;2022-08-07T09:11:49;20.80;87.50
25046;DHT22;13044;49.304;12.840;2022-08-07T09:25:08;21.00;86.60
25046;DHT22;13044;49.304;12.840;2022-08-07T09:30:45;21.10;84.10
25046;DHT22;13044;49.304;12.840;2022-08-07T09:33:31;21.10;83.90
25046;DHT22;13044;49.304;12.840;2022-08-07T09:36:28;21.10;84.10
25046;DHT22;13044;49.304;12.840;2022-08-07T09:45:19;21.30;83.80
25046;DHT22;13044;49.304;12.840;2022-08-07T09:51:46;21.50;83.10
25046;DHT22;13044;49.304;12.840;2022-08-07T10:00:14;21.70;82.20
25046;DHT22;13044;49.304;12.840;2022-08-07T10:27:35;22.20;83.00
25046;DHT22;13044;49.304;12.840;2022-08-07T10:30:16;22.30;79.30
25046;DHT22;13044;49.304;12.840;2022-08-07T10:39:24;22.40;81.90
25046;DHT22;13044;49.304;12.840;2022-08-07T10:48:32;22.70;74.90
25046;DHT22;13044;49.304;12.840;2022-08-07T10:51:20;22.70;76.40
25046;DHT22;13044;49.304;12.840;2022-08-07T10:57:06;22.70;74.20
25046;DHT22;13044;49.304;12.840;2022-08-07T11:00:05;22.80;72.70
25046;DHT22;13044;49.304;12.840;2022-08-07T11:02:54;22.80;73.60
25046;DHT22;13044;49.304;12.840;2022-08-07T11:05:30;22.90;73.50
25046;DHT22;13044;49.304;12.840;2022-08-07T11:08:42;22.90;74.40
25046;DHT22;13044;49.304;12.840;2022-08-07T11:11:21;22.80;74.50
25046;DHT22;13044;49.304;12.840;2022-08-07T11:14:09;22.80;73.70
25046;DHT22;13044;49.304;12.840;2022-08-07T11:17:09;22.90;73.30
25046;DHT22;13044;49.304;12.840;2022-08-07T11:19:57;22.90;74.80
25046;DHT22;13044;49.304;12.840;2022-08-07T11:22:47;23.00;75.80
25046;DHT22;13044;49.304;12.840;2022-08-07T11:25:35;23.30;72.00
25046;DHT22;13044;49.304;12.840;2022-08-07T11:28:20;23.40;70.10
25046;DHT22;13044;49.304;12.840;2022-08-07T11:31:04;23.50;69.90
25046;DHT22;13044;49.304;12.840;2022-08-07T11:39:59;23.40;69.70
25046;DHT22;13044;49.304;12.840;2022-08-07T11:42:55;23.40;68.30
25046;DHT22;13044;49.304;12.840;2022-08-07T12:01:37;23.90;69.90
25046;DHT22;13044;49.304;12.840;2022-08-07T12:05:16;23.90;70.00
25046;DHT22;13044;49.304;12.840;2022-08-07T12:08:20;24.10;68.80
25046;DHT22;13044;49.304;12.840;2022-08-07T12:11:18;24.20;69.10
25046;DHT22;13044;49.304;12.840;2022-08-07T12:14:00;24.20;69.70
25046;DHT22;13044;49.304;12.840;2022-08-07T12:16:45;24.20;69.40
25046;DHT22;13044;49.304;12.840;2022-08-07T12:26:04;24.60;68.60
25046;DHT22;13044;49.304;12.840;2022-08-07T12:29:10;24.60;69.20
25046;DHT22;13044;49.304;12.840;2022-08-07T12:31:57;24.60;66.30
25046;DHT22;13044;49.304;12.840;2022-08-07T12:34:37;24.60;65.60
25046;DHT22;13044;49.304;12.840;2022-08-07T12:37:09;24.30;68.40
25046;DHT22;13044;49.304;12.840;2022-08-07T12:39:49;24.40;68.20
25046;DHT22;13044;49.304;12.840;2022-08-07T12:42:24;24.50;68.50
25046;DHT22;13044;49.304;12.840;2022-08-07T12:44:56;24.50;67.50
25046;DHT22;13044;49.304;12.840;2022-08-07T12:51:08;24.50;67.10
25046;DHT22;13044;49.304;12.840;2022-08-07T12:56:43;24.60;68.30
25046;DHT22;13044;49.304;12.840;2022-08-07T12:59:26;24.70;67.10
25046;DHT22;13044;49.304;12.840;2022-08-07T13:02:49;24.90;66.50
25046;DHT22;13044;49.304;12.840;2022-08-07T13:09:15;24.90;66.20
25046;DHT22;13044;49.304;12.840;2022-08-07T13:28:52;24.90;68.10
25046;DHT22;13044;49.304;12.840;2022-08-07T13:31:49;25.00;66.80
25046;DHT22;13044;49.304;12.840;2022-08-07T13:37:35;25.00;66.70
25046;DHT22;13044;49.304;12.840;2022-08-07T13:40:26;25.10;67.30
25046;DHT22;13044;49.304;12.840;2022-08-07T13:43:12;25.10;65.70
25046;DHT22;13044;49.304;12.840;2022-08-07T13:45:44;25.20;65.70
25046;DHT22;13044;49.304;12.840;2022-08-07T13:48:33;25.10;65.00
25046;DHT22;13044;49.304;12.840;2022-08-07T13:51:05;25.00;65.40
25046;DHT22;13044;49.304;12.840;2022-08-07T13:53:57;24.90;65.80
25046;DHT22;13044;49.304;12.840;2022-08-07T13:56:29;25.00;66.00
25046;DHT22;13044;49.304;12.840;2022-08-07T14:01:58;25.00;66.70
25046;DHT22;13044;49.304;12.840;2022-08-07T14:04:53;25.10;65.50
25046;DHT22;13044;49.304;12.840;2022-08-07T14:07:25;25.20;65.90
25046;DHT22;13044;49.304;12.840;2022-08-07T14:09:58;25.30;63.30
25046;DHT22;13044;49.304;12.840;2022-08-07T14:12:56;25.40;64.20
25046;DHT22;13044;49.304;12.840;2022-08-07T14:18:13;25.30;63.50
25046;DHT22;13044;49.304;12.840;2022-08-07T14:21:18;25.20;63.20
25046;DHT22;13044;49.304;12.840;2022-08-07T14:24:27;25.30;62.80
25046;DHT22;13044;49.304;12.840;2022-08-07T14:27:02;25.20;62.00
25046;DHT22;13044;49.304;12.840;2022-08-07T14:29:55;25.10;62.40
25046;DHT22;13044;49.304;12.840;2022-08-07T14:32:42;25.10;62.40
25046;DHT22;13044;49.304;12.840;2022-08-07T14:35:21;25.20;63.30
25046;DHT22;13044;49.304;12.840;2022-08-07T14:38:13;25.30;62.30
25046;DHT22;13044;49.304;12.840;2022-08-07T14:40:58;25.30;62.80
25046;DHT22;13044;49.304;12.840;2022-08-07T14:43:33;25.30;64.50
25046;DHT22;13044;49.304;12.840;2022-08-07T14:46:24;25.30;64.00
25046;DHT22;13044;49.304;12.840;2022-08-07T14:49:12;25.40;64.70
25046;DHT22;13044;49.304;12.840;2022-08-07T14:52:05;25.60;62.10
25046;DHT22;13044;49.304;12.840;2022-08-07T14:58:50;25.50;62.60
25046;DHT22;13044;49.304;12.840;2022-08-07T15:01:27;25.50;64.40
25046;DHT22;13044;49.304;12.840;2022-08-07T15:04:09;25.50;62.60
25046;DHT22;13044;49.304;12.840;2022-08-07T15:06:39;25.60;62.50
25046;DHT22;13044;49.304;12.840;2022-08-07T15:09:15;25.60;63.90
25046;DHT22;13044;49.304;12.840;2022-08-07T15:12:09;25.60;62.30
25046;DHT22;13044;49.304;12.840;2022-08-07T15:15:03;25.60;63.00
25046;DHT22;13044;49.304;12.840;2022-08-07T15:18:01;25.50;64.40
25046;DHT22;13044;49.304;12.840;2022-08-07T15:20:40;25.60;63.00
25046;DHT22;13044;49.304;12.840;2022-08-07T15:23:27;25.60;63.40
25046;DHT22;13044;49.304;12.840;2022-08-07T15:26:15;25.60;62.80
25046;DHT22;13044;49.304;12.840;2022-08-07T15:28:47;25.50;63.30
25046;DHT22;13044;49.304;12.840;2022-08-07T15:31:35;25.50;64.00
25046;DHT22;13044;49.304;12.840;2022-08-07T15:34:22;25.50;64.40
25046;DHT22;13044;49.304;12.840;2022-08-07T15:36:52;25.60;63.90
25046;DHT22;13044;49.304;12.840;2022-08-07T15:39:46;25.60;64.10
25046;DHT22;13044;49.304;12.840;2022-08-07T15:48:22;25.80;62.70
25046;DHT22;13044;49.304;12.840;2022-08-07T15:50:58;25.80;62.30
25046;DHT22;13044;49.304;12.840;2022-08-07T15:56:37;25.70;63.10
25046;DHT22;13044;49.304;12.840;2022-08-07T15:59:10;25.60;62.00
25046;DHT22;13044;49.304;12.840;2022-08-07T16:01:49;25.60;64.90
25046;DHT22;13044;49.304;12.840;2022-08-07T16:04:30;25.60;62.20
25046;DHT22;13044;49.304;12.840;2022-08-07T16:06:59;25.60;63.80
25046;DHT22;13044;49.304;12.840;2022-08-07T16:12:38;25.50;61.50
25046;DHT22;13044;49.304;12.840;2022-08-07T16:15:40;25.60;60.20
25046;DHT22;13044;49.304;12.840;2022-08-07T16:24:40;25.50;60.50
25046;DHT22;13044;49.304;12.840;2022-08-07T16:27:29;25.50;60.50
25046;DHT22;13044;49.304;12.840;2022-08-07T16:33:11;25.40;60.30
25046;DHT22;13044;49.304;12.840;2022-08-07T16:39:23;25.20;61.00
25046;DHT22;13044;49.304;12.840;2022-08-07T16:43:04;25.20;62.60
25046;DHT22;13044;49.304;12.840;2022-08-07T16:56:08;24.90;63.50
25046;DHT22;13044;49.304;12.840;2022-08-07T16:59:02;24.80;63.00
25046;DHT22;13044;49.304;12.840;2022-08-07T17:05:58;24.60;63.60
25046;DHT22;13044;49.304;12.840;2022-08-07T17:08:55;24.50;63.10
25046;DHT22;13044;49.304;12.840;2022-08-07T17:11:52;24.50;62.50
25046;DHT22;13044;49.304;12.840;2022-08-07T17:20:32;24.20;63.40
25046;DHT22;13044;49.304;12.840;2022-08-07T17:30:11;23.90;64.70
25046;DHT22;13044;49.304;12.840;2022-08-07T17:33:06;23.80;64.90
25046;DHT22;13044;49.304;12.840;2022-08-07T17:36:21;23.80;64.80
25046;DHT22;13044;49.304;12.840;2022-08-07T17:39:00;23.60;65.80
25046;DHT22;13044;49.304;12.840;2022-08-07T17:41:54;23.60;66.00
25046;DHT22;13044;49.304;12.840;2022-08-07T17:44:43;23.50;66.30
25046;DHT22;13044;49.304;12.840;2022-08-07T17:47:43;23.40;66.00
25046;DHT22;13044;49.304;12.840;2022-08-07T17:50:27;23.40;66.00
25046;DHT22;13044;49.304;12.840;2022-08-07T17:57:14;23.20;67.10
25046;DHT22;13044;49.304;12.840;2022-08-07T17:59:51;23.10;67.40
25046;DHT22;13044;49.304;12.840;2022-08-07T18:05:42;23.00;67.50
25046;DHT22;13044;49.304;12.840;2022-08-07T18:14:33;22.70;67.30
25046;DHT22;13044;49.304;12.840;2022-08-07T18:17:34;22.70;68.00
25046;DHT22;13044;49.304;12.840;2022-08-07T18:20:27;22.60;68.50
25046;DHT22;13044;49.304;12.840;2022-08-07T18:24:12;22.60;67.90
25046;DHT22;13044;49.304;12.840;2022-08-07T18:29:22;22.50;68.20
25046;DHT22;13044;49.304;12.840;2022-08-07T18:38:26;22.20;70.00
25046;DHT22;13044;49.304;12.840;2022-08-07T18:45:12;22.10;70.50
25046;DHT22;13044;49.304;12.840;2022-08-07T18:48:08;22.00;70.80
25046;DHT22;13044;49.304;12.840;2022-08-07T18:51:15;21.90;71.20
25046;DHT22;13044;49.304;12.840;2022-08-07T18:54:39;21.90;70.70
25046;DHT22;13044;49.304;12.840;2022-08-07T19:03:46;21.70;72.60
25046;DHT22;13044;49.304;12.840;2022-08-07T19:06:59;21.60;73.30
25046;DHT22;13044;49.304;12.840;2022-08-07T19:09:51;21.60;74.10
25046;DHT22;13044;49.304;12.840;2022-08-07T19:18:41;21.30;76.50
25046;DHT22;13044;49.304;12.840;2022-08-07T19:22:20;21.20;75.60
25046;DHT22;13044;49.304;12.840;2022-08-07T19:25:14;21.10;77.10
25046;DHT22;13044;49.304;12.840;2022-08-07T19:28:07;21.00;78.20
25046;DHT22;13044;49.304;12.840;2022-08-07T19:31:16;20.90;78.70
25046;DHT22;13044;49.304;12.840;2022-08-07T19:34:11;20.80;79.00
25046;DHT22;13044;49.304;12.840;2022-08-07T19:37:00;20.70;79.70
25046;DHT22;13044;49.304;12.840;2022-08-07T19:39:46;20.60;80.00
25046;DHT22;13044;49.304;12.840;2022-08-07T19:42:29;20.60;80.70
25046;DHT22;13044;49.304;12.840;2022-08-07T19:45:10;20.50;80.70
25046;DHT22;13044;49.304;12.840;2022-08-07T19:47:58;20.50;81.20
25046;DHT22;13044;49.304;12.840;2022-08-07T19:50:26;20.50;80.70
25046;DHT22;13044;49.304;12.840;2022-08-07T19:53:13;20.50;80.70
25046;DHT22;13044;49.304;12.840;2022-08-07T19:56:08;20.50;80.90
25046;DHT22;13044;49.304;12.840;2022-08-07T19:58:56;20.50;81.80
25046;DHT22;13044;49.304;12.840;2022-08-07T20:01:24;20.50;82.00
25046;DHT22;13044;49.304;12.840;2022-08-07T20:04:15;20.40;81.90
25046;DHT22;13044;49.304;12.840;2022-08-07T20:07:05;20.30;82.70
25046;DHT22;13044;49.304;12.840;2022-08-07T20:09:45;20.30;82.90
25046;DHT22;13044;49.304;12.840;2022-08-07T20:12:34;20.40;83.30
25046;DHT22;13044;49.304;12.840;2022-08-07T20:15:06;20.30;85.40
25046;DHT22;13044;49.304;12.840;2022-08-07T20:17:48;20.30;83.60
25046;DHT22;13044;49.304;12.840;2022-08-07T20:20:30;20.20;83.90
25046;DHT22;13044;49.304;12.840;2022-08-07T20:23:04;20.10;84.20
25046;DHT22;13044;49.304;12.840;2022-08-07T20:25:54;20.00;85.70
25046;DHT22;13044;49.304;12.840;2022-08-07T20:28:26;19.90;85.30
25046;DHT22;13044;49.304;12.840;2022-08-07T20:30:57;19.80;85.70
25046;DHT22;13044;49.304;12.840;2022-08-07T20:33:28;19.80;86.50
25046;DHT22;13044;49.304;12.840;2022-08-07T20:36:05;19.70;86.30
25046;DHT22;13044;49.304;12.840;2022-08-07T20:38:33;19.60;87.50
25046;DHT22;13044;49.304;12.840;2022-08-07T20:41:30;19.50;87.10
25046;DHT22;13044;49.304;12.840;2022-08-07T20:44:03;19.50;87.90
25046;DHT22;13044;49.304;12.840;2022-08-07T20:46:38;19.40;88.70
25046;DHT22;13044;49.304;12.840;2022-08-07T20:49:11;19.40;90.00
25046;DHT22;13044;49.304;12.840;2022-08-07T20:52:02;19.40;90.10
25046;DHT22;13044;49.304;12.840;2022-08-07T20:54:49;19.50;89.70
25046;DHT22;13044;49.304;12.840;2022-08-07T20:57:36;19.40;89.10
25046;DHT22;13044;49.304;12.840;2022-08-07T21:00:15;19.20;89.70